Time;durP1;ratioP1;P1;durP2;ratioP2;P2;SDS_P1;SDS_P2;PMS_P1;PMS_P2;Temp;Humidity;BMP_temperature;BMP_pressure;BME280_temperature;BME280_humidity;BME280_pressure;Samples;Min_cycle;Max_cycle;Signal;HPM_P1;HPM_P2
2022/11/08 00:03:45;;;;;;;;;8.20;8.20;;;;;12.98;73.07;100293.53;4996378;28;45395;-57
2022/11/08 00:14:22;;;;;;;;;7.80;6.20;;;;;12.89;72.89;100278.44;4996290;28;45882;-58
2022/11/08 00:16:48;;;;;;;;;10.75;10.75;;;;;12.83;72.84;100254.63;4996909;28;45361;-57
2022/11/08 00:19:14;;;;;;;;;10.00;7.25;;;;;12.92;72.55;100266.13;4979758;28;45355;-59
2022/11/08 00:21:39;;;;;;;;;8.25;7.50;;;;;12.86;72.59;100252.22;4995409;28;47649;-60
2022/11/08 00:24:05;;;;;;;;;6.75;6.00;;;;;12.91;72.78;100259.75;4997520;28;45368;-59
2022/11/08 00:26:31;;;;;;;;;7.25;7.25;;;;;12.93;72.33;100248.50;4979929;28;45545;-59
2022/11/08 00:28:57;;;;;;;;;9.00;9.00;;;;;12.93;72.35;100248.50;4997328;28;45351;-56
2022/11/08 00:31:23;;;;;;;;;6.00;6.00;;;;;12.68;72.35;100202.78;4995420;28;46344;-59
2022/11/08 00:33:48;;;;;;;;;9.50;9.50;;;;;12.88;72.02;100229.97;4996224;28;45549;-59
2022/11/08 00:36:13;;;;;;;;;9.25;9.25;;;;;12.88;72.04;100232.72;4979533;28;45441;-55
2022/11/08 00:38:42;;;;;;;;;10.00;9.00;;;;;12.90;71.83;100221.47;4996655;28;45552;-56
2022/11/08 00:41:09;;;;;;;;;5.60;5.00;;;;;12.90;71.72;100214.03;4996852;28;45437;-60
2022/11/08 00:43:37;;;;;;;;;5.40;4.80;;;;;12.87;71.57;100209.00;4995364;28;45345;-57
2022/11/08 00:46:03;;;;;;;;;6.00;6.00;;;;;12.88;71.02;100203.25;4995898;28;45316;-56
2022/11/08 00:48:28;;;;;;;;;5.75;4.50;;;;;12.87;70.94;100198.81;4995234;28;45578;-58
2022/11/08 00:50:54;;;;;;;;;7.00;6.00;;;;;12.86;71.15;100197.16;4998004;28;45549;-58
2022/11/08 00:53:20;;;;;;;;;6.75;4.50;;;;;12.81;71.06;100186.00;4985503;28;46220;-59
2022/11/08 00:55:45;;;;;;;;;4.75;4.75;;;;;12.78;70.80;100181.00;4998225;28;45387;-57
2022/11/08 00:58:11;;;;;;;;;5.00;3.75;;;;;12.70;71.22;100170.34;5014574;28;45574;-57
2022/11/08 01:00:36;;;;;;;;;5.00;5.00;;;;;12.69;71.13;100177.75;5014699;28;47664;-59
2022/11/08 01:03:20;;;;;;;;;4.00;4.00;;;;;12.69;71.23;100185.16;5016080;28;45321;-59
2022/11/08 01:05:46;;;;;;;;;4.00;4.00;;;;;12.68;70.86;100184.34;5015035;28;45533;-60
2022/11/08 01:08:12;;;;;;;;;4.40;4.40;;;;;12.49;70.70;100153.34;5016095;28;45330;-57
2022/11/08 01:10:41;;;;;;;;;3.00;3.00;;;;;12.57;70.81;100163.16;5031050;28;47808;-57
2022/11/08 01:13:07;;;;;;;;;5.60;4.20;;;;;12.61;70.89;100167.94;4997720;28;45434;-61
2022/11/08 01:15:37;;;;;;;;;5.00;5.00;;;;;12.59;71.04;100158.25;4997730;28;45440;-57
2022/11/08 01:18:03;;;;;;;;;5.00;5.00;;;;;12.57;70.69;100172.28;5015549;28;45400;-59
2022/11/08 01:20:28;;;;;;;;;3.00;3.00;;;;;12.52;70.54;100177.66;5015402;28;45912;-58
2022/11/08 01:22:54;;;;;;;;;5.00;4.00;;;;;12.46;70.84;100167.59;5015150;28;45380;-59
2022/11/08 01:25:19;;;;;;;;;8.00;7.75;;;;;12.34;70.96;100149.16;5015602;28;45353;-57
2022/11/08 01:27:45;;;;;;;;;5.00;4.00;;;;;12.28;70.76;100139.09;5015601;28;45262;-59
2022/11/08 01:30:10;;;;;;;;;5.00;5.00;;;;;12.39;70.96;100156.69;5013829;28;47060;-56
2022/11/08 01:32:36;;;;;;;;;5.50;4.75;;;;;12.38;70.80;100155.00;5014913;28;45434;-60
2022/11/08 01:35:02;;;;;;;;;4.50;4.00;;;;;12.41;70.97;100161.94;5014508;28;45360;-59
2022/11/08 01:37:27;;;;;;;;;5.25;4.50;;;;;12.41;70.88;100172.97;5014271;28;45393;-58
2022/11/08 01:39:53;;;;;;;;;6.25;4.00;;;;;12.28;71.00;100147.34;5014972;28;45827;-56
2022/11/08 01:42:29;;;;;;;;;5.00;4.75;;;;;12.41;70.72;100165.56;5013830;28;45553;-57
2022/11/08 01:45:02;;;;;;;;;4.20;4.20;;;;;12.40;70.93;100160.28;5013739;28;45294;-58
2022/11/08 01:47:27;;;;;;;;;8.60;6.80;;;;;12.40;70.64;100161.13;5015261;28;45577;-57
2022/11/08 01:50:09;;;;;;;;;4.75;3.75;;;;;12.35;70.68;100155.50;4993563;28;45751;-59
2022/11/08 01:52:36;;;;;;;;;6.40;5.20;;;;;12.31;70.46;100152.38;5009487;28;45460;-58
2022/11/08 01:55:15;;;;;;;;;5.20;3.00;;;;;12.27;71.05;100136.59;4994459;28;45378;-56
2022/11/08 01:57:49;;;;;;;;;6.00;6.00;;;;;12.25;70.80;100139.59;4995496;28;45412;-57
2022/11/08 02:00:15;;;;;;;;;4.20;3.80;;;;;12.23;70.91;100133.50;5009373;28;46130;-56
2022/11/08 02:02:42;;;;;;;;;6.50;5.25;;;;;12.23;70.80;100130.75;4993563;28;45412;-59
2022/11/08 02:05:23;;;;;;;;;5.40;5.40;;;;;12.21;70.76;100138.38;4993861;28;45401;-58
2022/11/08 02:08:01;;;;;;;;;6.00;6.00;;;;;12.19;70.88;100121.28;4994221;28;45392;-59
2022/11/08 02:10:30;;;;;;;;;2.00;2.00;;;;;12.04;70.55;100110.72;4995034;28;46191;-56
2022/11/08 02:12:56;;;;;;;;;6.20;4.00;;;;;12.14;70.81;100124.75;4977176;28;45465;-58
2022/11/08 02:15:22;;;;;;;;;4.50;4.00;;;;;12.16;71.00;100118.97;5010280;28;45424;-59
2022/11/08 02:17:47;;;;;;;;;9.50;4.75;;;;;12.15;70.88;100118.16;4995114;28;45303;-57
2022/11/08 02:20:13;;;;;;;;;5.00;4.25;;;;;12.16;70.86;100103.31;4994892;28;45585;-56
2022/11/08 02:22:44;;;;;;;;;6.50;4.75;;;;;12.14;70.77;100093.63;4993312;28;45453;-56
2022/11/08 02:25:09;;;;;;;;;4.20;4.20;;;;;12.16;70.75;100092.31;4993456;28;45238;-58
2022/11/08 02:27:35;;;;;;;;;5.50;4.50;;;;;12.16;70.45;100081.31;4993685;28;45518;-57
2022/11/08 02:30:00;;;;;;;;;4.75;4.75;;;;;12.14;70.49;100077.97;4994810;28;46476;-56
2022/11/08 02:32:39;;;;;;;;;5.25;4.25;;;;;12.00;70.17;100062.75;4995009;28;45274;-57
2022/11/08 02:35:05;;;;;;;;;2.00;2.00;;;;;12.07;70.29;100069.81;4993695;28;45456;-56
2022/11/08 02:37:31;;;;;;;;;4.00;4.00;;;;;12.07;70.43;100066.25;4994159;28;45381;-53
2022/11/08 02:39:56;;;;;;;;;5.25;3.50;;;;;11.84;69.98;100023.06;4992735;28;48589;-58
2022/11/08 02:42:22;;;;;;;;;8.00;5.00;;;;;12.08;69.80;100059.69;4994526;28;45247;-58
2022/11/08 02:44:48;;;;;;;;;5.25;3.25;;;;;12.07;70.06;100069.81;5005101;28;45483;-58
2022/11/08 02:47:14;;;;;;;;;5.00;5.00;;;;;12.05;69.44;100058.25;4963863;28;45584;-55
2022/11/08 02:49:39;;;;;;;;;5.00;5.00;;;;;12.03;69.45;100054.03;4976561;28;47566;-58
2022/11/08 02:52:05;;;;;;;;;5.25;4.75;;;;;12.00;69.40;100058.06;5001417;28;45435;-58
2022/11/08 02:54:33;;;;;;;;;4.00;4.00;;;;;11.99;69.28;100045.41;5014654;28;45358;-57
2022/11/08 02:56:59;;;;;;;;;5.00;5.00;;;;;11.99;68.88;100039.91;5013565;28;45663;-57
2022/11/08 02:59:24;;;;;;;;;2.25;2.25;;;;;11.87;68.94;100017.06;5014665;28;45413;-55
2022/11/08 03:01:50;;;;;;;;;3.00;3.00;;;;;11.70;68.58;99998.53;5014431;28;45388;-56
2022/11/08 03:04:15;;;;;;;;;3.50;3.50;;;;;12.00;68.37;100038.00;5009361;28;45516;-58
2022/11/08 03:06:41;;;;;;;;;4.75;3.25;;;;;11.99;68.39;100033.56;4993796;28;45384;-60
2022/11/08 03:09:06;;;;;;;;;3.00;3.00;;;;;12.00;67.62;100044.31;4993952;28;46064;-57
2022/11/08 03:11:32;;;;;;;;;4.25;2.00;;;;;11.99;67.83;100053.66;4995183;28;45422;-58
2022/11/08 03:13:57;;;;;;;;;3.25;3.25;;;;;11.98;67.71;100053.88;4997791;28;45499;-56
2022/11/08 03:16:23;;;;;;;;;5.50;3.50;;;;;12.01;68.16;100047.94;4996711;28;45537;-58
2022/11/08 03:18:48;;;;;;;;;2.50;2.50;;;;;11.66;67.54;99989.09;4996120;28;45491;-60
2022/11/08 03:21:14;;;;;;;;;4.00;4.00;;;;;12.00;67.71;100044.31;4997760;28;45367;-55
2022/11/08 03:23:39;;;;;;;;;4.00;4.00;;;;;12.01;67.37;100051.50;4996637;28;45813;-57
2022/11/08 03:26:05;;;;;;;;;3.50;3.50;;;;;12.05;67.13;100052.72;4997654;28;45364;-58
2022/11/08 03:28:33;;;;;;;;;4.00;3.00;;;;;12.05;67.23;100043.63;4996073;28;45581;-58
2022/11/08 03:30:59;;;;;;;;;4.40;4.00;;;;;12.06;67.28;100045.31;4995964;28;45538;-55
2022/11/08 03:33:24;;;;;;;;;2.25;2.25;;;;;12.03;67.12;100051.25;4997273;28;45377;-57
2022/11/08 03:35:51;;;;;;;;;3.25;3.25;;;;;12.03;67.14;100045.75;4996375;28;45379;-57
2022/11/08 03:38:17;;;;;;;;;3.20;2.80;;;;;11.85;67.39;100006.28;4997013;28;46660;-58
2022/11/08 03:40:43;;;;;;;;;5.00;5.00;;;;;12.03;66.43;100043.91;5001620;28;45353;-56
2022/11/08 03:43:09;;;;;;;;;2.00;2.00;;;;;12.06;66.86;100034.31;5016844;28;45236;-58
2022/11/08 03:45:34;;;;;;;;;4.25;3.25;;;;;12.02;66.21;100027.59;5017446;28;45313;-58
2022/11/08 03:48:00;;;;;;;;;4.75;2.75;;;;;12.05;66.67;100030.72;5016438;28;46008;-58
2022/11/08 03:50:25;;;;;;;;;4.75;4.00;;;;;12.02;66.53;100033.91;5016734;28;45188;-58
2022/11/08 03:52:52;;;;;;;;;4.00;4.00;;;;;12.01;66.27;100026.75;5016921;28;45299;-59
2022/11/08 03:55:19;;;;;;;;;3.20;3.20;;;;;11.91;66.48;100024.59;5017567;28;45296;-58
2022/11/08 03:57:45;;;;;;;;;2.60;2.60;;;;;11.75;66.48;99995.06;5016848;28;47041;-56
2022/11/08 04:00:12;;;;;;;;;3.00;3.00;;;;;11.97;65.98;100028.31;4998592;28;45443;-58
2022/11/08 04:02:38;;;;;;;;;3.00;3.00;;;;;11.73;66.26;99992.56;5015435;28;45405;-56
2022/11/08 04:05:04;;;;;;;;;4.00;3.00;;;;;11.95;66.38;100027.69;4999097;28;45415;-57
2022/11/08 04:07:29;;;;;;;;;6.00;4.60;;;;;11.96;65.77;100036.81;5016126;28;45409;-56
2022/11/08 04:09:55;;;;;;;;;6.00;4.00;;;;;11.87;66.00;100020.66;5016658;28;45330;-57
2022/11/08 04:15:14;;;;;;;;;7.00;6.40;;;;;12.03;66.16;100032.00;5016373;28;45338;-58
2022/11/08 04:23:08;;;;;;;;;2.20;2.20;;;;;11.98;65.67;100032.72;5015309;28;45369;-56
2022/11/08 04:25:34;;;;;;;;;3.25;3.25;;;;;11.95;65.66;100030.44;5014884;28;45398;-57
2022/11/08 04:27:59;;;;;;;;;5.25;3.50;;;;;11.97;66.06;100031.06;5015986;28;46635;-56
2022/11/08 04:30:25;;;;;;;;;3.50;3.25;;;;;11.99;65.93;100039.91;5015676;28;45877;-57
2022/11/08 04:32:50;;;;;;;;;5.25;3.00;;;;;11.99;65.60;100031.66;5016488;28;45277;-59
2022/11/08 04:35:16;;;;;;;;;5.00;3.00;;;;;11.97;65.83;100024.72;5016599;28;45280;-59
2022/11/08 04:37:41;;;;;;;;;4.50;3.75;;;;;11.97;64.97;100027.47;5015841;28;46214;-58
2022/11/08 04:40:07;;;;;;;;;7.50;3.50;;;;;11.75;65.47;100006.88;5015559;28;45324;-56
2022/11/08 04:42:33;;;;;;;;;3.80;3.00;;;;;11.70;65.52;100004.03;4995252;28;45388;-57
2022/11/08 04:44:58;;;;;;;;;4.00;3.00;;;;;11.92;65.59;100023.50;4996246;28;45306;-57
2022/11/08 04:47:24;;;;;;;;;3.00;3.00;;;;;11.74;65.56;99999.72;4995780;28;45486;-59
2022/11/08 04:49:49;;;;;;;;;3.00;3.00;;;;;11.90;65.03;100030.34;4995873;28;45376;-56
2022/11/08 04:52:15;;;;;;;;;3.00;3.00;;;;;11.78;65.22;100019.31;4995106;28;45418;-57
2022/11/08 04:54:43;;;;;;;;;3.75;3.50;;;;;11.85;65.08;100032.97;4995776;28;45482;-55
2022/11/08 04:57:09;;;;;;;;;3.80;3.00;;;;;11.85;65.27;100027.47;4996057;28;46273;-58
2022/11/08 04:59:35;;;;;;;;;3.40;3.00;;;;;11.88;65.59;100026.97;4994230;28;45393;-56
2022/11/08 05:02:00;;;;;;;;;5.00;4.00;;;;;11.61;65.55;99991.69;4995951;28;45388;-56
2022/11/08 05:04:26;;;;;;;;;3.50;3.50;;;;;11.88;65.67;100033.34;4995860;28;45335;-56
2022/11/08 05:06:51;;;;;;;;;4.75;3.25;;;;;11.81;65.58;100013.38;4994349;28;46983;-58
2022/11/08 05:09:17;;;;;;;;;3.00;3.00;;;;;11.89;65.82;100015.75;4994362;28;45365;-58
2022/11/08 05:11:42;;;;;;;;;3.75;3.00;;;;;11.85;65.07;100011.78;4994572;28;45451;-54
2022/11/08 05:14:08;;;;;;;;;5.00;3.00;;;;;11.83;65.29;100024.09;4994500;28;45439;-57
2022/11/08 05:16:33;;;;;;;;;4.00;3.00;;;;;11.86;65.56;100026.38;4995580;28;45955;-56
2022/11/08 05:18:59;;;;;;;;;3.00;3.00;;;;;11.85;64.95;100024.72;4995356;28;45695;-55
2022/11/08 05:24:11;;;;;;;;;4.00;3.00;;;;;11.86;65.33;100027.25;4995908;28;45363;-58
2022/11/08 05:26:37;;;;;;;;;2.60;2.60;;;;;11.84;65.43;100023.88;4995431;28;46037;-56
2022/11/08 05:29:03;;;;;;;;;3.40;3.40;;;;;11.83;65.31;100032.34;4994050;28;45469;-56
2022/11/08 05:31:29;;;;;;;;;5.00;4.00;;;;;11.74;65.33;100018.13;4995828;28;45255;-56
2022/11/08 05:33:54;;;;;;;;;8.50;8.50;;;;;11.59;65.28;99999.34;4995634;28;45338;-57
2022/11/08 05:36:20;;;;;;;;;2.75;2.75;;;;;11.82;65.46;100041.69;4993889;28;45363;-56
2022/11/08 05:38:45;;;;;;;;;4.00;4.00;;;;;11.72;65.34;100023.88;4993954;28;45237;-56
2022/11/08 05:41:14;;;;;;;;;3.25;2.00;;;;;11.79;65.34;100026.50;5001720;28;45364;-58
2022/11/08 05:43:41;;;;;;;;;4.00;2.80;;;;;11.80;65.03;100026.25;5014325;28;45650;-59
2022/11/08 05:46:06;;;;;;;;;3.00;2.00;;;;;11.82;65.43;100019.69;5014992;28;45542;-57
2022/11/08 05:48:32;;;;;;;;;2.50;2.50;;;;;11.82;65.71;100023.28;5015255;28;45387;-57
2022/11/08 05:50:57;;;;;;;;;3.00;3.00;;;;;11.81;65.42;100021.63;5014958;28;45371;-57
2022/11/08 05:53:23;;;;;;;;;5.25;4.25;;;;;11.79;65.47;100016.34;5015222;28;45804;-58
2022/11/08 05:55:49;;;;;;;;;3.00;3.00;;;;;11.80;64.99;100029.00;5014770;28;45575;-59
2022/11/08 05:58:14;;;;;;;;;3.75;3.25;;;;;11.17;64.87;99937.03;5015209;28;45376;-57
2022/11/08 06:00:40;;;;;;;;;3.80;2.60;;;;;11.73;65.45;100022.78;5013276;28;45292;-57
2022/11/08 06:03:06;;;;;;;;;3.00;3.00;;;;;11.72;65.57;100028.53;5015040;28;45656;-59
2022/11/08 06:05:32;;;;;;;;;4.00;3.50;;;;;11.71;65.34;100021.34;5014958;28;46185;-57
2022/11/08 06:07:57;;;;;;;;;3.75;3.75;;;;;11.44;65.02;99983.31;5014597;28;45386;-59
2022/11/08 06:10:23;;;;;;;;;4.50;2.00;;;;;11.72;65.96;100021.13;5013834;28;45352;-59
2022/11/08 06:12:48;;;;;;;;;5.00;4.00;;;;;11.70;65.30;100011.44;5015465;28;45449;-58
2022/11/08 06:15:14;;;;;;;;;4.00;4.00;;;;;11.72;65.45;100023.03;5014132;28;46721;-55
2022/11/08 06:17:39;;;;;;;;;3.25;3.25;;;;;11.70;65.20;100031.53;5014730;28;45630;-56
2022/11/08 06:20:10;;;;;;;;;2.00;2.00;;;;;11.61;65.57;100020.03;5014422;28;45432;-56
2022/11/08 06:22:36;;;;;;;;;4.00;4.00;;;;;11.62;65.33;100018.09;5015090;28;45709;-56
2022/11/08 06:25:01;;;;;;;;;3.50;3.50;;;;;11.37;65.53;99983.44;5014599;28;45349;-57
2022/11/08 06:27:27;;;;;;;;;3.75;3.75;;;;;11.51;65.38;100008.78;5029252;28;45430;-56
2022/11/08 06:29:52;;;;;;;;;5.00;5.00;;;;;11.61;65.40;100013.69;5014543;28;45309;-57
2022/11/08 06:32:18;;;;;;;;;5.00;4.00;;;;;11.68;65.10;100027.34;5013011;28;45361;-58
2022/11/08 06:34:45;;;;;;;;;4.75;3.75;;;;;11.70;65.21;100023.28;4999202;28;48444;-58
2022/11/08 06:37:11;;;;;;;;;3.40;3.20;;;;;11.68;64.95;100010.84;5014401;28;45492;-56
2022/11/08 06:39:37;;;;;;;;;3.20;3.20;;;;;11.70;65.02;100017.78;5014400;28;45429;-56
2022/11/08 06:42:02;;;;;;;;;3.75;3.00;;;;;11.70;65.33;100037.03;5000530;28;45464;-57
2022/11/08 06:44:28;;;;;;;;;13.75;12.75;;;;;11.70;65.26;100033.44;4992838;28;45489;-58
2022/11/08 06:46:56;;;;;;;;;3.50;3.50;;;;;11.61;65.23;100043.91;4995660;28;45461;-58
2022/11/08 06:49:22;;;;;;;;;4.20;4.20;;;;;11.66;65.83;100068.78;4997760;28;45700;-58
2022/11/08 06:51:49;;;;;;;;;3.00;3.00;;;;;11.63;65.42;100063.78;4998018;28;45495;-55
2022/11/08 06:54:14;;;;;;;;;4.60;3.80;;;;;11.65;65.22;100051.44;4997464;28;46271;-59
2022/11/08 06:56:40;;;;;;;;;4.00;4.00;;;;;11.69;65.20;100060.06;4996373;28;45455;-57
2022/11/08 06:59:05;;;;;;;;;5.25;3.00;;;;;11.66;65.29;100050.41;4996668;28;45241;-58
2022/11/08 07:01:31;;;;;;;;;4.00;4.00;;;;;11.62;65.26;100046.44;4997749;28;45444;-60
2022/11/08 07:03:56;;;;;;;;;6.25;4.00;;;;;11.63;65.27;100052.78;4997326;28;46043;-56
2022/11/08 07:06:22;;;;;;;;;4.00;4.00;;;;;11.64;65.26;100047.03;4997525;28;45350;-56
2022/11/08 07:08:47;;;;;;;;;3.50;3.00;;;;;11.61;64.87;100053.03;4997991;28;45306;-56
2022/11/08 07:11:13;;;;;;;;;5.25;3.00;;;;;11.36;65.63;100018.31;4996543;28;45566;-56
2022/11/08 07:13:38;;;;;;;;;4.00;4.00;;;;;11.68;65.22;100060.31;4997200;28;45678;-58
2022/11/08 07:16:04;;;;;;;;;4.00;4.00;;;;;11.46;64.82;100023.22;4997193;28;45384;-57
2022/11/08 07:18:30;;;;;;;;;8.25;5.75;;;;;11.63;65.51;100055.53;4997518;28;45208;-55
2022/11/08 07:20:59;;;;;;;;;4.00;2.75;;;;;11.63;65.71;100072.03;4997591;28;45166;-58
2022/11/08 07:23:25;;;;;;;;;5.80;4.00;;;;;11.65;65.70;100076.19;4997119;28;46120;-59
2022/11/08 07:25:53;;;;;;;;;2.00;2.00;;;;;11.69;65.48;100076.56;4996856;28;45361;-58
2022/11/08 07:28:19;;;;;;;;;3.00;2.60;;;;;11.68;65.44;100052.91;4996284;28;45869;-56
2022/11/08 07:30:45;;;;;;;;;3.20;3.20;;;;;11.71;65.39;100051.59;4979400;28;45599;-57
2022/11/08 07:33:12;;;;;;;;;2.40;2.40;;;;;11.52;65.25;100016.78;5007384;28;45868;-59
2022/11/08 07:35:37;;;;;;;;;3.00;3.00;;;;;11.76;65.54;100060.81;4968025;28;47623;-59
2022/11/08 07:38:03;;;;;;;;;3.75;3.75;;;;;11.75;65.14;100075.63;4995867;28;45811;-56
2022/11/08 07:40:28;;;;;;;;;6.00;4.00;;;;;11.79;65.07;100070.47;4997163;28;45500;-58
2022/11/08 07:42:58;;;;;;;;;5.00;4.00;;;;;11.79;65.33;100079.56;5014077;28;46426;-56
2022/11/08 07:45:23;;;;;;;;;9.40;4.80;;;;;11.71;65.54;100057.94;5016567;28;45502;-56
2022/11/08 07:47:56;;;;;;;;;9.75;5.00;;;;;11.86;65.19;100079.47;5016913;28;45366;-56
2022/11/08 07:50:21;;;;;;;;;4.20;4.20;;;;;11.68;65.24;100030.91;5017001;28;45310;-57
2022/11/08 07:52:50;;;;;;;;;7.75;5.00;;;;;11.95;64.94;100066.19;5016418;28;45745;-52
2022/11/08 07:55:15;;;;;;;;;4.60;2.80;;;;;12.01;64.76;100073.50;5016490;28;45333;-54
2022/11/08 07:57:41;;;;;;;;;4.25;4.00;;;;;12.04;64.73;100069.47;5016611;28;45354;-59
2022/11/08 08:00:07;;;;;;;;;3.00;3.00;;;;;12.08;64.89;100065.19;5016787;28;45496;-57
2022/11/08 08:02:33;;;;;;;;;5.20;4.20;;;;;11.90;64.69;100039.41;5015345;28;46470;-58
2022/11/08 08:04:58;;;;;;;;;5.00;5.00;;;;;12.05;64.85;100060.13;5016107;28;45345;-55
2022/11/08 08:07:24;;;;;;;;;4.50;4.00;;;;;12.07;64.90;100069.81;5002453;28;45268;-55
2022/11/08 08:09:49;;;;;;;;;6.00;5.75;;;;;12.15;64.98;100065.91;4979303;28;45663;-56
2022/11/08 08:12:15;;;;;;;;;7.25;4.25;;;;;12.12;64.84;100049.84;4996641;28;46086;-55
2022/11/08 08:14:40;;;;;;;;;5.75;4.00;;;;;12.22;64.63;100051.19;4996574;28;45464;-60
2022/11/08 08:17:06;;;;;;;;;7.75;4.25;;;;;11.92;64.75;100009.75;4996215;28;45291;-60
2022/11/08 08:19:31;;;;;;;;;5.50;3.50;;;;;12.26;64.82;100044.97;4997015;28;45559;-60
2022/11/08 08:21:57;;;;;;;;;4.75;4.00;;;;;12.12;64.47;100014.09;4995971;28;45791;-58
2022/11/08 08:24:22;;;;;;;;;6.75;4.00;;;;;12.29;64.79;100036.22;4996457;28;45348;-58
2022/11/08 08:26:48;;;;;;;;;4.00;4.00;;;;;12.37;64.26;100039.69;4996578;28;45390;-62
2022/11/08 08:29:13;;;;;;;;;3.50;3.50;;;;;12.34;64.94;100033.56;4995329;28;45518;-61
2022/11/08 08:31:39;;;;;;;;;3.25;3.25;;;;;12.37;65.05;100018.50;4996371;28;45701;-62
2022/11/08 08:34:04;;;;;;;;;5.25;4.25;;;;;12.44;64.72;100024.69;4996187;28;45247;-60
2022/11/08 08:36:29;;;;;;;;;4.50;3.75;;;;;12.47;64.77;100031.66;4985991;28;45819;-60
2022/11/08 08:38:55;;;;;;;;;3.25;3.00;;;;;12.57;64.99;100039.28;5016359;28;45415;-60
2022/11/08 08:41:20;;;;;;;;;5.50;4.00;;;;;11.96;64.42;99933.16;5014796;28;45334;-61
2022/11/08 08:43:46;;;;;;;;;5.00;4.25;;;;;12.55;64.72;100013.94;5016469;28;45311;-58
2022/11/08 08:46:11;;;;;;;;;3.00;3.00;;;;;12.87;64.18;100055.59;5015089;28;45460;-58
2022/11/08 08:48:37;;;;;;;;;4.25;3.00;;;;;12.93;64.56;100058.47;5015335;28;45594;-59
2022/11/08 08:51:03;;;;;;;;;3.25;3.25;;;;;12.99;63.95;100063.00;5015716;28;46039;-59
2022/11/08 08:53:29;;;;;;;;;2.00;2.00;;;;;12.99;64.23;100057.50;4987126;28;45892;-61
2022/11/08 08:55:54;;;;;;;;;6.50;5.00;;;;;13.00;64.53;100054.50;4997992;28;46100;-60
2022/11/08 08:58:20;;;;;;;;;2.00;2.00;;;;;13.09;64.40;100052.19;4994694;28;45535;-61
2022/11/08 09:00:45;;;;;;;;;3.25;3.25;;;;;13.19;64.25;100068.09;4980845;28;45935;-60
2022/11/08 09:03:11;;;;;;;;;4.25;3.25;;;;;13.17;64.22;100048.19;5013610;28;45927;-59
2022/11/08 09:05:39;;;;;;;;;5.00;3.50;;;;;13.26;64.21;100060.50;5014050;28;45458;-60
2022/11/08 09:08:05;;;;;;;;;5.20;4.20;;;;;13.31;64.14;100059.75;5012827;28;45417;-49
2022/11/08 09:10:31;;;;;;;;;5.00;5.00;;;;;13.29;64.18;100053.66;5012866;28;45715;-58
2022/11/08 09:12:56;;;;;;;;;4.50;4.50;;;;;13.46;63.75;100058.41;5012767;28;45332;-56
2022/11/08 09:15:22;;;;;;;;;4.00;3.25;;;;;13.31;63.64;100015.66;5012710;28;45357;-60
2022/11/08 09:17:47;;;;;;;;;3.00;3.00;;;;;13.72;63.71;100051.38;5013703;28;45570;-61
2022/11/08 09:20:15;;;;;;;;;6.50;5.00;;;;;13.51;63.70;100011.63;5012539;28;45791;-57
2022/11/08 09:22:41;;;;;;;;;3.00;3.00;;;;;13.91;63.43;100071.31;5014036;28;45419;-56
2022/11/08 09:25:06;;;;;;;;;4.00;4.00;;;;;13.78;63.17;100044.88;5014235;28;45418;-54
2022/11/08 09:27:32;;;;;;;;;5.50;5.00;;;;;14.09;63.10;100074.91;5013921;28;45460;-57
2022/11/08 09:29:58;;;;;;;;;3.00;3.00;;;;;14.16;63.24;100072.81;5013702;28;45584;-55
2022/11/08 09:32:24;;;;;;;;;3.80;3.80;;;;;13.80;63.40;100023.41;5011283;28;45500;-57
2022/11/08 09:34:53;;;;;;;;;5.20;4.00;;;;;14.20;63.43;100092.44;5005045;28;45486;-56
2022/11/08 09:37:19;;;;;;;;;3.60;3.60;;;;;14.23;63.62;100087.25;4991420;28;45337;-52
2022/11/08 09:39:44;;;;;;;;;2.50;2.50;;;;;14.03;62.92;100046.38;5013149;28;45354;-55
2022/11/08 09:42:39;;;;;;;;;10.25;8.25;;;;;14.19;63.33;100077.81;5013501;28;45361;-54
2022/11/08 09:45:11;;;;;;;;;4.00;4.00;;;;;14.08;63.43;100038.19;5011511;28;45606;-54
2022/11/08 09:47:44;;;;;;;;;2.00;2.00;;;;;14.01;63.69;100032.00;5012181;28;45673;-55
2022/11/08 09:50:20;;;;;;;;;5.00;3.00;;;;;14.10;64.24;100049.78;5011907;28;45563;-55
2022/11/08 09:52:59;;;;;;;;;3.00;3.00;;;;;13.96;63.91;100016.22;5011259;28;45409;-56
2022/11/08 09:55:57;;;;;;;;;3.00;1.20;;;;;14.26;64.11;100058.31;4996745;28;45496;-55
2022/11/08 09:59:01;;;;;;;;;5.20;4.00;;;;;14.35;63.74;100069.75;5031898;28;45741;-56
2022/11/08 10:01:31;;;;;;;;;4.60;3.00;;;;;14.44;63.53;100065.47;4975957;28;45896;-56
2022/11/08 10:03:58;;;;;;;;;2.20;1.80;;;;;14.60;63.21;100057.41;5004681;28;45450;-50
2022/11/08 10:06:45;;;;;;;;;3.00;3.00;;;;;14.55;63.63;100018.66;5011421;28;45371;-53
2022/11/08 10:09:29;;;;;;;;;4.00;3.00;;;;;14.82;63.45;100062.13;4998710;28;45385;-51
2022/11/08 10:12:01;;;;;;;;;3.60;3.60;;;;;14.86;63.08;100069.66;4990849;28;47133;-54
2022/11/08 10:14:36;;;;;;;;;3.60;2.60;;;;;14.91;62.70;100057.81;4991741;28;45470;-52
2022/11/08 10:17:13;;;;;;;;;5.60;4.40;;;;;14.94;63.10;100062.81;4991270;28;45397;-53
2022/11/08 10:19:51;;;;;;;;;6.00;3.00;;;;;15.04;63.22;100071.25;4991989;28;45542;-55
2022/11/08 10:22:41;;;;;;;;;1.80;1.80;;;;;15.17;62.91;100069.19;5012606;28;45633;-57
2022/11/08 10:25:24;;;;;;;;;4.40;3.20;;;;;15.12;62.95;100063.59;5016898;28;45315;-62
2022/11/08 10:27:51;;;;;;;;;3.80;3.80;;;;;15.20;62.75;100062.31;5014768;28;45678;-60
2022/11/08 10:30:29;;;;;;;;;0.00;0.00;;;;;15.39;62.69;100060.00;4999421;28;45709;-61
2022/11/08 10:32:55;;;;;;;;;5.00;5.00;;;;;15.77;62.12;100060.91;5016295;28;47623;-59
2022/11/08 10:35:49;;;;;;;;;6.40;4.00;;;;;16.70;59.91;100065.44;5032144;28;45421;-61
2022/11/08 10:38:24;;;;;;;;;6.60;3.00;;;;;16.70;59.47;100068.19;5006070;28;45335;-60
2022/11/08 10:41:21;;;;;;;;;4.80;3.60;;;;;16.30;61.34;100053.84;5015508;28;45673;-62
2022/11/08 10:44:03;;;;;;;;;2.00;0.00;;;;;15.91;61.51;100052.97;5002753;28;46608;-57
2022/11/08 10:46:43;;;;;;;;;5.00;2.20;;;;;15.96;62.83;100061.34;4999486;28;45441;-59
2022/11/08 10:49:24;;;;;;;;;2.80;2.00;;;;;16.17;63.04;100052.38;5015644;28;45559;-57
2022/11/08 10:51:52;;;;;;;;;3.80;3.00;;;;;16.35;62.97;100051.13;4995623;28;45774;-60
2022/11/08 10:54:40;;;;;;;;;5.00;3.80;;;;;16.35;63.35;100057.50;4975936;28;46609;-58
2022/11/08 10:57:05;;;;;;;;;2.60;2.60;;;;;16.38;62.45;100048.63;5000080;28;45441;-58
2022/11/08 10:59:31;;;;;;;;;5.25;4.00;;;;;16.33;62.50;100014.56;4998496;28;45305;-58
2022/11/08 11:01:56;;;;;;;;;2.00;2.00;;;;;16.43;61.88;100036.75;5013167;28;45571;-59
2022/11/08 11:04:27;;;;;;;;;3.50;3.50;;;;;16.90;61.23;100042.50;5014712;28;46875;-60
2022/11/08 11:06:52;;;;;;;;;3.40;3.40;;;;;17.38;61.25;100036.00;5015117;28;45386;-60
2022/11/08 11:09:19;;;;;;;;;3.00;3.00;;;;;17.50;59.39;100031.00;5015156;28;45839;-62
2022/11/08 11:11:45;;;;;;;;;3.20;2.40;;;;;17.26;59.74;100031.56;5016085;28;45475;-60
2022/11/08 11:14:18;;;;;;;;;3.00;3.00;;;;;16.93;60.71;100003.16;5013514;28;45788;-59
2022/11/08 11:17:06;;;;;;;;;2.00;2.00;;;;;16.84;61.17;100041.66;5015328;28;45794;-58
2022/11/08 11:19:31;;;;;;;;;4.00;3.00;;;;;16.93;61.01;100039.19;5015411;28;45423;-58
2022/11/08 11:22:01;;;;;;;;;5.75;5.00;;;;;16.84;60.83;100005.63;5013596;28;45319;-61
2022/11/08 11:24:26;;;;;;;;;4.20;4.00;;;;;17.05;60.39;100038.97;5014353;28;45588;-60
2022/11/08 11:26:55;;;;;;;;;3.25;2.50;;;;;17.04;60.90;100031.78;4992330;28;45852;-60
2022/11/08 11:29:34;;;;;;;;;5.20;2.60;;;;;17.06;61.06;100021.25;5003228;28;45325;-58
2022/11/08 11:32:23;;;;;;;;;2.00;2.00;;;;;16.97;61.19;100025.63;4995005;28;45384;-58
2022/11/08 11:34:53;;;;;;;;;3.80;2.80;;;;;16.94;60.44;99958.56;4996141;28;46111;-58
2022/11/08 11:37:39;;;;;;;;;3.00;3.00;;;;;17.89;59.46;100040.75;4995748;28;45416;-59
2022/11/08 11:40:39;;;;;;;;;5.60;5.60;;;;;17.86;58.54;100008.84;4994836;28;45589;-61
2022/11/08 11:43:06;;;;;;;;;3.60;3.40;;;;;17.83;59.00;100045.47;5007840;28;45372;-60
2022/11/08 11:45:56;;;;;;;;;5.60;4.40;;;;;17.24;59.81;100019.06;5014344;28;46492;-61
2022/11/08 11:48:23;;;;;;;;;5.00;4.00;;;;;17.28;60.52;100031.28;5015706;28;45928;-58
2022/11/08 11:50:49;;;;;;;;;7.40;4.80;;;;;17.20;60.75;100016.00;5014880;28;45450;-59